sensor_id;sensor_type;location;lat;lon;timestamp;temperature;humidity
75517;DHT22;64097;52.548;13.406;2023-01-23T06:01:06;7.90;66.70
75517;DHT22;64097;52.548;13.406;2023-01-23T06:03:32;7.90;66.80
75517;DHT22;64097;52.548;13.406;2023-01-23T06:06:00;7.90;66.90
75517;DHT22;64097;52.548;13.406;2023-01-23T06:08:26;7.90;66.90
75517;DHT22;64097;52.548;13.406;2023-01-23T06:10:52;7.90;66.90
75517;DHT22;64097;52.548;13.406;2023-01-23T06:13:18;7.90;66.70
75517;DHT22;64097;52.548;13.406;2023-01-23T06:15:44;7.90;66.70
75517;DHT22;64097;52.548;13.406;2023-01-23T06:18:09;8.00;66.70
75517;DHT22;64097;52.548;13.406;2023-01-23T06:20:35;7.90;66.70
75517;DHT22;64097;52.548;13.406;2023-01-23T06:23:01;8.00;66.70
75517;DHT22;64097;52.548;13.406;2023-01-23T06:25:26;8.00;66.70
75517;DHT22;64097;52.548;13.406;2023-01-23T06:27:52;8.00;66.60
75517;DHT22;64097;52.548;13.406;2023-01-23T06:30:18;8.00;66.50
75517;DHT22;64097;52.548;13.406;2023-01-23T06:32:43;7.90;66.50
75517;DHT22;64097;52.548;13.406;2023-01-23T06:35:09;7.90;66.60
75517;DHT22;64097;52.548;13.406;2023-01-23T06:37:35;7.90;66.40
75517;DHT22;64097;52.548;13.406;2023-01-23T06:40:01;7.90;66.70
75517;DHT22;64097;52.548;13.406;2023-01-23T06:42:26;7.90;66.60
75517;DHT22;64097;52.548;13.406;2023-01-23T06:44:52;7.90;67.40
75517;DHT22;64097;52.548;13.406;2023-01-23T06:47:18;7.90;66.20
75517;DHT22;64097;52.548;13.406;2023-01-23T06:49:44;7.90;66.40
75517;DHT22;64097;52.548;13.406;2023-01-23T06:52:10;7.90;66.40
75517;DHT22;64097;52.548;13.406;2023-01-23T06:54:35;7.90;66.40
75517;DHT22;64097;52.548;13.406;2023-01-23T06:57:02;7.90;66.40
75517;DHT22;64097;52.548;13.406;2023-01-23T06:59:28;7.90;66.50
75517;DHT22;64097;52.548;13.406;2023-01-23T07:01:54;7.90;66.50
75517;DHT22;64097;52.548;13.406;2023-01-23T07:04:20;7.90;66.40
75517;DHT22;64097;52.548;13.406;2023-01-23T07:06:46;7.90;66.40
75517;DHT22;64097;52.548;13.406;2023-01-23T07:09:11;7.90;66.40
75517;DHT22;64097;52.548;13.406;2023-01-23T07:11:38;7.90;66.30
75517;DHT22;64097;52.548;13.406;2023-01-23T07:14:03;7.90;66.30
75517;DHT22;64097;52.548;13.406;2023-01-23T07:16:29;7.90;66.20
75517;DHT22;64097;52.548;13.406;2023-01-23T07:18:56;7.90;66.00
75517;DHT22;64097;52.548;13.406;2023-01-23T07:21:23;7.90;66.10
75517;DHT22;64097;52.548;13.406;2023-01-23T07:23:49;7.90;66.10
75517;DHT22;64097;52.548;13.406;2023-01-23T07:26:15;7.80;66.20
75517;DHT22;64097;52.548;13.406;2023-01-23T07:28:44;7.90;66.30
75517;DHT22;64097;52.548;13.406;2023-01-23T07:31:10;7.90;66.30
75517;DHT22;64097;52.548;13.406;2023-01-23T07:33:35;7.90;66.20
75517;DHT22;64097;52.548;13.406;2023-01-23T07:36:04;7.90;66.30
75517;DHT22;64097;52.548;13.406;2023-01-23T07:38:31;7.90;66.20
75517;DHT22;64097;52.548;13.406;2023-01-23T07:40:57;7.90;66.20
75517;DHT22;64097;52.548;13.406;2023-01-23T07:43:24;7.90;66.10
75517;DHT22;64097;52.548;13.406;2023-01-23T07:45:49;7.90;66.20
75517;DHT22;64097;52.548;13.406;2023-01-23T07:48:15;7.90;65.90
75517;DHT22;64097;52.548;13.406;2023-01-23T07:50:41;7.90;66.10
75517;DHT22;64097;52.548;13.406;2023-01-23T07:53:07;7.90;66.10
75517;DHT22;64097;52.548;13.406;2023-01-23T07:55:33;7.90;66.30
75517;DHT22;64097;52.548;13.406;2023-01-23T07:57:59;8.00;66.10
75517;DHT22;64097;52.548;13.406;2023-01-23T08:00:25;8.00;65.90
75517;DHT22;64097;52.548;13.406;2023-01-23T08:02:51;8.00;65.70
75517;DHT22;64097;52.548;13.406;2023-01-23T08:05:17;8.00;65.80
75517;DHT22;64097;52.548;13.406;2023-01-23T08:07:42;8.00;66.00
75517;DHT22;64097;52.548;13.406;2023-01-23T08:10:09;8.00;66.00
75517;DHT22;64097;52.548;13.406;2023-01-23T08:12:35;8.00;66.00
75517;DHT22;64097;52.548;13.406;2023-01-23T08:15:00;8.00;65.90
75517;DHT22;64097;52.548;13.406;2023-01-23T08:17:26;8.00;65.90
75517;DHT22;64097;52.548;13.406;2023-01-23T08:19:52;8.10;65.80
75517;DHT22;64097;52.548;13.406;2023-01-23T08:22:21;8.10;65.70
75517;DHT22;64097;52.548;13.406;2023-01-23T08:24:46;8.10;65.70
75517;DHT22;64097;52.548;13.406;2023-01-23T08:27:13;8.10;65.30
75517;DHT22;64097;52.548;13.406;2023-01-23T08:29:38;8.10;65.10
75517;DHT22;64097;52.548;13.406;2023-01-23T08:32:04;8.00;65.30
75517;DHT22;64097;52.548;13.406;2023-01-23T08:34:30;8.00;65.20
75517;DHT22;64097;52.548;13.406;2023-01-23T08:36:56;8.00;65.30
75517;DHT22;64097;52.548;13.406;2023-01-23T08:39:22;8.10;65.50
75517;DHT22;64097;52.548;13.406;2023-01-23T08:41:49;8.10;65.50
75517;DHT22;64097;52.548;13.406;2023-01-23T08:44:15;8.10;65.30
75517;DHT22;64097;52.548;13.406;2023-01-23T08:46:41;8.10;65.40
75517;DHT22;64097;52.548;13.406;2023-01-23T08:49:07;8.10;65.50
75517;DHT22;64097;52.548;13.406;2023-01-23T08:51:33;8.10;65.30
75517;DHT22;64097;52.548;13.406;2023-01-23T08:53:58;8.10;65.20
75517;DHT22;64097;52.548;13.406;2023-01-23T08:56:24;8.10;65.20
75517;DHT22;64097;52.548;13.406;2023-01-23T08:58:50;8.10;65.20
75517;DHT22;64097;52.548;13.406;2023-01-23T09:01:21;8.10;65.30
75517;DHT22;64097;52.548;13.406;2023-01-23T09:03:48;8.20;65.20
75517;DHT22;64097;52.548;13.406;2023-01-23T09:06:16;8.10;64.70
75517;DHT22;64097;52.548;13.406;2023-01-23T09:08:43;8.10;64.70
75517;DHT22;64097;52.548;13.406;2023-01-23T09:11:11;8.10;64.90
75517;DHT22;64097;52.548;13.406;2023-01-23T09:13:37;8.10;65.10
75517;DHT22;64097;52.548;13.406;2023-01-23T09:16:04;8.10;65.00
75517;DHT22;64097;52.548;13.406;2023-01-23T09:18:30;8.10;64.80
75517;DHT22;64097;52.548;13.406;2023-01-23T09:20:56;8.10;64.80
75517;DHT22;64097;52.548;13.406;2023-01-23T09:23:23;8.20;64.70
75517;DHT22;64097;52.548;13.406;2023-01-23T09:25:48;8.10;64.90
75517;DHT22;64097;52.548;13.406;2023-01-23T09:28:16;8.20;64.70
75517;DHT22;64097;52.548;13.406;2023-01-23T09:30:42;8.20;64.70
75517;DHT22;64097;52.548;13.406;2023-01-23T09:33:08;8.20;64.60
75517;DHT22;64097;52.548;13.406;2023-01-23T09:35:34;8.20;64.70
75517;DHT22;64097;52.548;13.406;2023-01-23T09:38:00;8.20;64.80
75517;DHT22;64097;52.548;13.406;2023-01-23T09:40:35;8.20;64.70
75517;DHT22;64097;52.548;13.406;2023-01-23T09:45:40;8.20;64.90
75517;DHT22;64097;52.548;13.406;2023-01-23T09:48:20;8.30;64.80
75517;DHT22;64097;52.548;13.406;2023-01-23T09:50:53;8.20;64.60
75517;DHT22;64097;52.548;13.406;2023-01-23T09:53:22;8.30;64.70
75517;DHT22;64097;52.548;13.406;2023-01-23T09:55:59;8.20;64.40
75517;DHT22;64097;52.548;13.406;2023-01-23T09:58:33;8.30;64.50
75517;DHT22;64097;52.548;13.406;2023-01-23T10:01:00;8.30;64.70
75517;DHT22;64097;52.548;13.406;2023-01-23T10:03:29;8.30;64.70
75517;DHT22;64097;52.548;13.406;2023-01-23T10:06:19;8.40;64.70
75517;DHT22;64097;52.548;13.406;2023-01-23T10:09:02;8.40;64.60
75517;DHT22;64097;52.548;13.406;2023-01-23T10:12:24;8.40;64.50
75517;DHT22;64097;52.548;13.406;2023-01-23T10:17:29;8.50;64.20
75517;DHT22;64097;52.548;13.406;2023-01-23T10:25:46;8.50;63.90
75517;DHT22;64097;52.548;13.406;2023-01-23T10:28:32;8.40;63.70
75517;DHT22;64097;52.548;13.406;2023-01-23T10:36:35;8.50;64.10
75517;DHT22;64097;52.548;13.406;2023-01-23T10:39:17;8.50;63.90
75517;DHT22;64097;52.548;13.406;2023-01-23T10:41:45;8.50;63.90
75517;DHT22;64097;52.548;13.406;2023-01-23T10:44:16;8.50;64.00
75517;DHT22;64097;52.548;13.406;2023-01-23T10:46:48;8.50;64.00
75517;DHT22;64097;52.548;13.406;2023-01-23T10:49:33;8.50;63.70
75517;DHT22;64097;52.548;13.406;2023-01-23T10:52:30;8.60;63.90
75517;DHT22;64097;52.548;13.406;2023-01-23T10:54:57;8.60;63.80
75517;DHT22;64097;52.548;13.406;2023-01-23T10:57:25;8.60;63.70
75517;DHT22;64097;52.548;13.406;2023-01-23T11:00:32;8.60;64.60
75517;DHT22;64097;52.548;13.406;2023-01-23T11:05:54;8.60;63.40
75517;DHT22;64097;52.548;13.406;2023-01-23T11:08:32;8.60;63.30
75517;DHT22;64097;52.548;13.406;2023-01-23T11:13:46;8.60;63.00
75517;DHT22;64097;52.548;13.406;2023-01-23T11:16:20;8.60;63.20
75517;DHT22;64097;52.548;13.406;2023-01-23T11:21:31;8.60;63.30
75517;DHT22;64097;52.548;13.406;2023-01-23T11:27:05;8.60;63.30
75517;DHT22;64097;52.548;13.406;2023-01-23T11:29:44;8.60;63.30
75517;DHT22;64097;52.548;13.406;2023-01-23T11:32:13;8.60;63.00
75517;DHT22;64097;52.548;13.406;2023-01-23T11:34:48;8.70;62.80
75517;DHT22;64097;52.548;13.406;2023-01-23T11:37:34;8.70;62.90
75517;DHT22;64097;52.548;13.406;2023-01-23T11:40:06;8.70;63.00
75517;DHT22;64097;52.548;13.406;2023-01-23T11:42:34;8.60;62.80
75517;DHT22;64097;52.548;13.406;2023-01-23T12:01:08;8.60;62.90
75517;DHT22;64097;52.548;13.406;2023-01-23T12:06:46;8.70;62.80
75517;DHT22;64097;52.548;13.406;2023-01-23T12:09:16;8.70;62.80
75517;DHT22;64097;52.548;13.406;2023-01-23T12:14:38;8.70;63.10
75517;DHT22;64097;52.548;13.406;2023-01-23T12:20:29;8.70;62.40
75517;DHT22;64097;52.548;13.406;2023-01-23T12:23:13;8.70;62.30
75517;DHT22;64097;52.548;13.406;2023-01-23T12:25:47;8.70;62.50
75517;DHT22;64097;52.548;13.406;2023-01-23T12:34:31;8.70;61.90
75517;DHT22;64097;52.548;13.406;2023-01-23T12:42:30;8.70;61.80
75517;DHT22;64097;52.548;13.406;2023-01-23T12:48:21;8.70;61.70
75517;DHT22;64097;52.548;13.406;2023-01-23T12:51:03;8.70;61.60
75517;DHT22;64097;52.548;13.406;2023-01-23T12:53:34;8.70;61.70
75517;DHT22;64097;52.548;13.406;2023-01-23T12:56:13;8.70;61.60
75517;DHT22;64097;52.548;13.406;2023-01-23T12:58:44;8.70;61.60
75517;DHT22;64097;52.548;13.406;2023-01-23T13:12:23;8.70;61.70
75517;DHT22;64097;52.548;13.406;2023-01-23T13:15:38;8.80;61.70
75517;DHT22;64097;52.548;13.406;2023-01-23T13:17:58;8.80;61.40
75517;DHT22;64097;52.548;13.406;2023-01-23T13:20:31;8.80;61.50
75517;DHT22;64097;52.548;13.406;2023-01-23T13:23:31;8.80;61.50
75517;DHT22;64097;52.548;13.406;2023-01-23T13:31:43;8.70;61.50
75517;DHT22;64097;52.548;13.406;2023-01-23T13:36:52;8.70;61.30
75517;DHT22;64097;52.548;13.406;2023-01-23T13:39:31;8.70;61.40
75517;DHT22;64097;52.548;13.406;2023-01-23T13:42:42;8.70;61.40
75517;DHT22;64097;52.548;13.406;2023-01-23T13:45:27;8.70;61.40
75517;DHT22;64097;52.548;13.406;2023-01-23T13:48:17;8.70;61.40
75517;DHT22;64097;52.548;13.406;2023-01-23T13:51:34;8.70;61.50
75517;DHT22;64097;52.548;13.406;2023-01-23T13:54:00;8.70;61.40
75517;DHT22;64097;52.548;13.406;2023-01-23T13:56:46;8.80;61.40
